Fort Smith Regional Airport (KFSM) Information & Weather

WARNING: the data listed below is for informational purposes only and should be confirmed from official sources. Data presented here on this page may be out of date, incomplete or wrong.

Name: Fort Smith Regional Airport
Identifier: KFSM

Coord: 35.3366N 94.3674W
Var: 2°E

Country: United States
Municipality: FT SMITH, AR
Time Zone: (GMT-06:00) America/Chicago

Station Elevation: 469 ft
Pressure Altitude: 466 ft
Density Altitude: 2315 ft
Freezing Level: 14105 ft

Civil Twilight
Morning: 11:00 UTC  (05:00 local)
Evening: 01:46 UTC  (19:46 local)

Flight Category: VFR (29 minutes ago)

METAR KFSM 040453Z AUTO 09003KT 10SM BKN095 27/22 A2992 RMK AO2 SLP125 T02670217= [toggle past 4 hours]

TAF KFSM 032320Z 0400/0424 00000KT P6SM BKN120 FM040200 VRB04KT P6SM SCT090 BKN200=

Upper Winds

Source   Valid 375 1000 2000 2500 3000 5000 6000 8000 10000 12000 14000 16000 18000 21000 24000 26000 30000 34000 39000 44000 52000 60000
GFS 0403/0406 1506+31 1608+31 1615+32 1614+30 1512+28 1312+23 1212+19 1005+14 1004+09 1213+06 1209+03 0404+00 3506-06 2808-11 2917-17 2934-22 2931-31 3134-42 3135-54 3136-65 3313-69 0306-64

SIGMET/AIRMET

None within 25nm.

PIREP

None within 25nm.

NOTAM

None within 25nm.

Runway Data

Frequencies

Nearby Airports

Nearby Navaids